Time;durP1;ratioP1;P1;durP2;ratioP2;P2;SDS_P1;SDS_P2;PMS_P1;PMS_P2;Temp;Humidity;BMP_temperature;BMP_pressure;BME280_temperature;BME280_humidity;BME280_pressure;Samples;Min_cycle;Max_cycle;Signal;HPM_P1;HPM_P2
2023/10/09 00:00:11;;;;;;;;;;;;;;;;;;;;;
2023/10/09 00:02:45;;;;;;;20.60;14.03;;;;;;;15.32;100.00;101893.47;5224155;28;20029;-81
2023/10/09 00:05:40;;;;;;;19.83;13.70;;;;;;;15.70;100.00;101943.91;5236854;28;20025;-81
2023/10/09 00:08:20;;;;;;;20.67;13.60;;;;;;;15.47;100.00;101915.41;5218942;28;20037;-81
2023/10/09 00:11:13;;;;;;;18.17;13.57;;;;;;;15.42;100.00;101920.13;5204873;28;20038;-81
2023/10/09 00:13:53;;;;;;;22.13;14.47;;;;;;;15.50;100.00;101887.13;5209404;28;20433;-81
2023/10/09 00:16:34;;;;;;;25.50;15.23;;;;;;;15.60;100.00;101917.25;5231821;28;20041;-80
2023/10/09 00:19:30;;;;;;;21.57;14.33;;;;;;;15.43;100.00;101895.41;5218475;28;20044;-79
2023/10/09 00:22:17;;;;;;;16.07;13.83;;;;;;;15.84;100.00;101906.91;5206385;28;20039;-79
2023/10/09 00:25:09;;;;;;;20.67;15.47;;;;;;;15.88;100.00;101935.75;5218242;28;20029;-79
2023/10/09 00:27:42;;;;;;;19.33;13.80;;;;;;;15.93;100.00;101942.44;5218256;28;20136;-79
2023/10/09 00:30:21;;;;;;;20.37;14.03;;;;;;;15.80;100.00;101902.75;5218128;28;20112;-79
2023/10/09 00:38:33;;;;;;;22.03;14.33;;;;;;;15.88;100.00;101878.50;5231085;28;20485;-80
2023/10/09 00:41:48;;;;;;;17.43;13.50;;;;;;;15.84;100.00;101858.50;5218303;28;20056;-80
2023/10/09 00:44:14;;;;;;;19.67;14.07;;;;;;;16.13;100.00;101898.00;5230017;28;20033;-80
2023/10/09 00:46:47;;;;;;;16.97;13.30;;;;;;;15.94;100.00;101875.44;5218877;28;20072;-80
2023/10/09 00:49:24;;;;;;;19.33;12.83;;;;;;;16.29;100.00;101899.63;5217031;28;20481;-80
2023/10/09 00:51:59;;;;;;;20.60;14.07;;;;;;;16.11;100.00;101883.22;5228701;28;20037;-80
2023/10/09 00:54:40;;;;;;;16.87;13.17;;;;;;;15.88;100.00;101849.44;5196785;28;20137;-80
2023/10/09 00:57:13;;;;;;;20.37;13.70;;;;;;;15.81;100.00;101845.50;5215271;28;20033;-79
2023/10/09 00:59:51;;;;;;;22.30;13.97;;;;;;;15.97;100.00;101877.88;5238416;28;20075;-79
2023/10/09 01:05:26;;;;;;;16.77;13.37;;;;;;;15.96;100.00;101865.63;5231781;28;20076;-79
2023/10/09 01:07:58;;;;;;;19.50;14.30;;;;;;;15.91;100.00;101862.44;5215655;28;20028;-78
2023/10/09 01:10:50;;;;;;;17.20;12.57;;;;;;;15.94;100.00;101849.00;5230950;28;20034;-79
2023/10/09 01:13:38;;;;;;;16.57;12.73;;;;;;;16.10;100.00;101871.78;5232578;28;20120;-79
2023/10/09 01:16:16;;;;;;;21.07;13.93;;;;;;;16.28;100.00;101898.78;5218868;28;20029;-79
2023/10/09 01:19:06;;;;;;;21.23;14.87;;;;;;;16.61;100.00;101915.09;5219434;28;20038;-78
2023/10/09 01:21:40;;;;;;;19.77;13.87;;;;;;;16.33;100.00;101893.19;5222725;28;20033;-78
2023/10/09 01:24:11;;;;;;;17.25;13.30;;;;;;;16.11;100.00;101844.41;5220821;28;20013;-77
2023/10/09 01:26:46;;;;;;;19.83;14.03;;;;;;;16.25;100.00;101890.22;5242282;28;20224;-78
2023/10/09 01:29:19;;;;;;;18.87;12.97;;;;;;;16.17;100.00;101870.44;5241718;28;20032;-78
2023/10/09 01:37:19;;;;;;;17.97;13.27;;;;;;;16.44;100.00;101922.38;5231307;28;20025;-77
2023/10/09 01:39:57;;;;;;;20.13;14.37;;;;;;;16.39;100.00;101913.91;5222183;28;20029;-78
2023/10/09 01:42:44;;;;;;;19.90;13.70;;;;;;;16.41;100.00;101924.38;5229255;28;20033;-79
2023/10/09 01:45:27;;;;;;;16.67;12.03;;;;;;;16.40;100.00;101910.31;5229612;28;20067;-78
2023/10/09 01:48:04;;;;;;;19.10;13.80;;;;;;;16.28;100.00;101885.56;5207196;28;20018;-78
2023/10/09 01:50:36;;;;;;;16.40;12.40;;;;;;;16.41;100.00;101908.50;5226645;28;20110;-78
2023/10/09 01:53:08;;;;;;;15.80;12.63;;;;;;;16.38;100.00;101903.44;5210244;28;20026;-78
2023/10/09 01:55:45;;;;;;;17.13;12.80;;;;;;;16.47;100.00;101909.91;5213254;28;20704;-77
2023/10/09 01:59:05;;;;;;;16.60;13.40;;;;;;;16.68;100.00;101924.31;5234555;28;20033;-78
2023/10/09 02:01:47;;;;;;;15.63;12.50;;;;;;;16.28;100.00;101896.16;5205921;28;20424;-78
2023/10/09 02:04:20;;;;;;;18.43;12.93;;;;;;;16.32;100.00;101886.19;5234022;28;20017;-78
2023/10/09 02:06:52;;;;;;;18.23;12.23;;;;;;;16.19;100.00;101887.03;5233786;28;20044;-78
2023/10/09 02:09:30;;;;;;;17.10;12.73;;;;;;;16.42;100.00;101913.69;5215739;28;20026;-78
2023/10/09 02:12:02;;;;;;;16.60;12.73;;;;;;;16.30;100.00;101888.09;5215182;28;20041;-78
2023/10/09 02:14:37;;;;;;;16.00;12.33;;;;;;;16.26;100.00;101881.31;5233131;28;20020;-78
2023/10/09 02:17:20;;;;;;;17.87;12.80;;;;;;;16.39;100.00;101898.03;5232991;28;20431;-78
2023/10/09 02:19:52;;;;;;;17.37;12.47;;;;;;;16.35;100.00;101888.66;5233629;28;20017;-78
2023/10/09 02:22:26;;;;;;;15.67;12.20;;;;;;;16.39;100.00;101899.84;5232869;28;20017;-79
2023/10/09 02:24:58;;;;;;;19.00;11.85;;;;;;;16.32;100.00;101880.91;5228683;28;20014;-78
2023/10/09 02:27:53;;;;;;;18.20;12.13;;;;;;;16.35;100.00;101893.94;5206921;28;20037;-78
2023/10/09 02:30:27;;;;;;;18.65;11.93;;;;;;;16.38;100.00;101901.66;5233132;28;20056;-78
2023/10/09 02:33:09;;;;;;;18.23;12.52;;;;;;;16.37;100.00;101870.84;5199386;28;20040;-79
2023/10/09 02:35:42;;;;;;;18.13;12.30;;;;;;;16.47;100.00;101883.47;5231882;28;20116;-79
2023/10/09 02:38:17;;;;;;;15.68;13.27;;;;;;;16.32;100.00;101862.41;5231377;28;20033;-79
2023/10/09 02:43:47;;;;;;;18.50;12.23;;;;;;;16.28;100.00;101858.28;5228269;28;20038;-79
2023/10/09 02:46:20;;;;;;;17.40;11.73;;;;;;;16.44;100.00;101868.66;5221520;28;20523;-79
2023/10/09 02:48:52;;;;;;;17.97;12.60;;;;;;;16.31;100.00;101836.94;5231507;28;20045;-79
2023/10/09 02:54:18;;;;;;;17.20;13.23;;;;;;;16.40;100.00;101848.66;5231075;28;20029;-79
2023/10/09 02:59:30;;;;;;;18.93;12.07;;;;;;;16.40;100.00;101846.88;5232104;28;20053;-80
2023/10/09 03:02:01;;;;;;;20.20;14.17;;;;;;;16.40;100.00;101857.44;5224709;28;20474;-80
2023/10/09 03:04:33;;;;;;;15.20;12.63;;;;;;;16.15;100.00;101819.47;5220148;28;20026;-79
2023/10/09 03:07:05;;;;;;;21.77;12.57;;;;;;;16.38;100.00;101856.72;5230722;28;20114;-79
2023/10/09 03:09:45;;;;;;;18.20;12.13;;;;;;;16.26;100.00;101844.31;5219240;28;20021;-79
2023/10/09 03:12:27;;;;;;;19.77;12.27;;;;;;;16.34;100.00;101857.84;5214051;28;20523;-79
2023/10/09 03:15:05;;;;;;;17.23;12.87;;;;;;;16.38;100.00;101859.34;5214375;28;20033;-80
2023/10/09 03:18:04;;;;;;;16.87;13.07;;;;;;;16.38;100.00;101856.72;5210199;28;20036;-80
2023/10/09 03:20:49;;;;;;;18.07;12.17;;;;;;;16.18;100.00;101808.69;5214191;28;20025;-79
2023/10/09 03:23:30;;;;;;;18.43;12.77;;;;;;;16.52;100.00;101852.25;5203831;28;20087;-79
2023/10/09 03:26:13;;;;;;;20.57;14.50;;;;;;;16.32;100.00;101806.88;5207550;28;20061;-79
2023/10/09 03:29:16;;;;;;;15.87;12.77;;;;;;;16.11;100.00;101777.53;5204490;28;20045;-79
2023/10/09 03:36:48;;;;;;;;;;;;;;;;;;;;;
2023/10/09 04:00:18;;;;;;;;;;;;;;;;;;;;;
2023/10/09 04:03:06;;;;;;;20.20;13.73;;;;;;;16.02;100.00;101776.34;5116013;28;20058;-80
2023/10/09 04:06:11;;;;;;;17.60;12.40;;;;;;;16.05;100.00;101762.94;5167095;28;20051;-80
2023/10/09 04:15:18;;;;;;;19.37;13.17;;;;;;;16.32;100.00;101833.31;5222956;28;20038;-80
2023/10/09 04:18:10;;;;;;;;;;;;;;;;;;;;;
2023/10/09 04:27:13;;;;;;;17.20;13.50;;;;;;;16.47;100.00;101814.72;5214544;28;20044;-80
2023/10/09 04:44:35;;;;;;;20.37;14.00;;;;;;;16.12;100.00;101793.28;5063815;29;20492;-79
2023/10/09 04:47:35;;;;;;;20.30;14.50;;;;;;;15.96;100.00;101796.06;5088557;29;20048;-79
2023/10/09 05:03:24;;;;;;;16.88;13.18;;;;;;;16.14;100.00;101838.94;5239487;28;20045;-68
2023/10/09 05:05:59;;;;;;;20.93;14.37;;;;;;;16.24;100.00;101839.16;5233617;28;20360;-69
2023/10/09 05:08:32;;;;;;;22.40;14.60;;;;;;;16.13;100.00;101850.44;5233799;28;20037;-68
2023/10/09 05:13:57;;;;;;;21.53;16.00;;;;;;;16.17;100.00;101849.28;5233897;28;20464;-66
2023/10/09 05:16:33;;;;;;;21.80;14.30;;;;;;;16.17;100.00;101846.66;5221037;28;20593;-68
2023/10/09 05:19:07;;;;;;;20.80;13.33;;;;;;;16.15;100.00;101859.13;5226959;28;20080;-68
2023/10/09 05:37:33;;;;;;;18.10;13.97;;;;;;;16.38;100.00;101880.50;5229252;28;20041;-67
2023/10/09 05:40:22;;;;;;;18.67;13.73;;;;;;;16.28;100.00;101872.34;5231736;28;20026;-68
2023/10/09 05:42:59;;;;;;;17.17;13.97;;;;;;;16.28;100.00;101884.72;5227123;28;20055;-69
2023/10/09 06:04:53;;;;;;;20.57;15.03;;;;;;;16.29;100.00;101908.41;5233279;28;20033;-67
2023/10/09 06:07:49;;;;;;;25.03;15.63;;;;;;;16.29;100.00;101915.47;5249189;28;20034;-67
2023/10/09 06:10:37;;;;;;;22.70;16.30;;;;;;;16.35;100.00;101906.28;5240983;28;20029;-67
2023/10/09 06:13:37;;;;;;;18.13;15.40;;;;;;;16.30;100.00;101910.09;5230377;28;20017;-68
2023/10/09 06:16:19;;;;;;;21.83;15.27;;;;;;;16.31;100.00;101905.66;5229690;28;20483;-67
2023/10/09 06:19:11;;;;;;;22.77;15.33;;;;;;;16.29;100.00;101905.75;5231492;28;20040;-67
2023/10/09 06:24:23;;;;;;;20.73;16.17;;;;;;;16.37;100.00;101893.81;5229845;28;20407;-68
2023/10/09 06:30:15;;;;;;;24.17;17.23;;;;;;;16.32;100.00;101892.31;5231594;28;20452;-69
2023/10/09 06:43:29;;;;;;;23.93;17.17;;;;;;;16.42;100.00;101903.13;5230030;28;20041;-68
2023/10/09 06:48:56;;;;;;;23.27;16.73;;;;;;;16.46;100.00;101906.41;5231010;28;20431;-67
2023/10/09 06:54:04;;;;;;;21.67;16.30;;;;;;;16.47;100.00;101904.59;5226923;28;20523;-68
2023/10/09 06:59:21;;;;;;;23.00;18.07;;;;;;;16.47;100.00;101891.38;5229816;28;20103;-68
2023/10/09 07:04:45;;;;;;;27.93;18.53;;;;;;;16.49;100.00;101884.19;5227415;28;20038;-68
2023/10/09 07:07:20;;;;;;;24.98;18.40;;;;;;;16.54;100.00;101868.88;5226607;28;20228;-69
2023/10/09 07:12:53;;;;;;;21.23;16.93;;;;;;;16.58;100.00;101859.78;5231489;28;20025;-68
2023/10/09 07:16:23;;;;;;;23.80;16.43;;;;;;;16.56;100.00;101840.53;5226902;28;20032;-68
2023/10/09 07:18:49;;;;;;;25.67;17.30;;;;;;;16.64;100.00;101838.19;5222720;28;20041;-67
2023/10/09 07:21:27;;;;;;;22.07;16.23;;;;;;;16.61;100.00;101833.13;5220670;28;20022;-67
2023/10/09 07:24:13;;;;;;;23.97;16.97;;;;;;;16.64;100.00;101853.19;5227892;28;20030;-68
2023/10/09 07:26:47;;;;;;;26.23;16.53;;;;;;;16.73;100.00;101846.41;5226769;28;20159;-67
2023/10/09 07:29:23;;;;;;;23.13;17.38;;;;;;;16.76;100.00;101848.84;5231765;28;20025;-67
2023/10/09 07:31:57;;;;;;;22.57;17.27;;;;;;;16.76;100.00;101872.66;5229167;28;20034;-68
2023/10/09 07:34:31;;;;;;;23.15;16.85;;;;;;;16.78;100.00;101892.75;5226667;28;20033;-69
2023/10/09 07:37:03;;;;;;;23.88;17.83;;;;;;;16.77;100.00;101900.81;5232956;28;20120;-68
2023/10/09 07:39:35;;;;;;;25.30;17.13;;;;;;;16.77;100.00;101920.16;5229723;28;20067;-66
2023/10/09 07:42:19;;;;;;;25.77;17.53;;;;;;;16.82;100.00;101930.44;5226866;28;20116;-66
2023/10/09 07:44:53;;;;;;;25.50;17.53;;;;;;;16.79;100.00;101939.41;5223006;28;20040;-67
2023/10/09 07:50:21;;;;;;;23.73;17.17;;;;;;;16.75;100.00;101929.16;5221796;28;20530;-67
2023/10/09 07:53:14;;;;;;;23.47;17.93;;;;;;;16.75;100.00;101923.88;5232042;28;20029;-66
2023/10/09 07:55:55;;;;;;;26.80;17.00;;;;;;;16.81;100.00;101911.06;5229955;28;20040;-69
2023/10/09 07:58:26;;;;;;;29.20;18.10;;;;;;;16.76;100.00;101892.00;5227200;28;20021;-67
2023/10/09 08:01:07;;;;;;;21.77;17.23;;;;;;;16.84;100.00;101891.50;5227976;28;20056;-69
2023/10/09 08:03:39;;;;;;;25.83;18.30;;;;;;;16.85;100.00;101892.31;5237835;28;20035;-68
2023/10/09 08:17:16;;;;;;;27.17;17.70;;;;;;;16.96;100.00;101904.81;5230903;28;20853;-68
2023/10/09 08:20:11;;;;;;;25.98;18.15;;;;;;;17.01;100.00;101918.56;5230201;28;20021;-69
2023/10/09 08:22:52;;;;;;;22.65;18.15;;;;;;;17.06;100.00;101911.13;5227300;28;20033;-69
2023/10/09 08:25:35;;;;;;;25.13;19.90;;;;;;;17.00;100.00;101909.75;5232247;28;20033;-68
2023/10/09 08:33:40;;;;;;;24.23;19.33;;;;;;;17.27;100.00;101900.00;5233190;28;20042;-68
2023/10/09 08:36:14;;;;;;;26.30;19.08;;;;;;;17.46;100.00;101890.72;5230215;28;20571;-67
2023/10/09 08:38:46;;;;;;;23.88;18.95;;;;;;;17.51;100.00;101893.88;5231059;28;20033;-70
2023/10/09 08:41:18;;;;;;;28.77;18.73;;;;;;;17.51;100.00;101883.28;5230906;28;20032;-68
2023/10/09 08:43:51;;;;;;;26.77;18.47;;;;;;;17.65;100.00;101895.50;5231059;28;20026;-67
2023/10/09 08:46:27;;;;;;;28.13;18.57;;;;;;;17.73;100.00;101876.41;5246084;28;20025;-67
2023/10/09 08:48:59;;;;;;;23.73;17.73;;;;;;;17.69;100.00;101888.19;5225962;28;20446;-69
2023/10/09 08:51:35;;;;;;;25.07;17.97;;;;;;;17.74;100.00;101888.69;5229687;28;20037;-67
2023/10/09 08:54:11;;;;;;;22.90;18.60;;;;;;;17.88;100.00;101885.88;5230675;28;20022;-68
2023/10/09 08:56:51;;;;;;;27.60;18.33;;;;;;;18.10;100.00;101884.25;5233657;28;20029;-67
2023/10/09 08:59:22;;;;;;;20.93;17.47;;;;;;;18.33;100.00;101879.03;5229790;28;20018;-69
2023/10/09 09:01:54;;;;;;;23.57;19.10;;;;;;;18.52;100.00;101885.56;5229965;28;20049;-68
2023/10/09 09:04:39;;;;;;;26.30;19.70;;;;;;;18.82;100.00;101891.22;5230820;28;20032;-68
2023/10/09 09:07:39;;;;;;;23.97;19.40;;;;;;;18.99;100.00;101889.91;5230007;28;20078;-67
2023/10/09 09:10:23;;;;;;;25.60;18.40;;;;;;;18.91;100.00;101893.19;5229950;28;20127;-68
2023/10/09 09:13:00;;;;;;;27.70;19.20;;;;;;;19.07;100.00;101887.50;5230257;28;20055;-69
2023/10/09 09:15:32;;;;;;;25.07;17.20;;;;;;;19.20;100.00;101899.81;5230109;28;20022;-67
2023/10/09 09:18:09;;;;;;;22.90;18.20;;;;;;;19.49;100.00;101901.91;5230589;28;20067;-68
2023/10/09 09:20:40;;;;;;;27.03;18.83;;;;;;;19.62;100.00;101908.91;5230251;28;20034;-67
2023/10/09 09:23:13;;;;;;;23.70;17.60;;;;;;;19.71;100.00;101916.09;5230448;28;20044;-67
2023/10/09 09:25:47;;;;;;;22.17;17.83;;;;;;;19.77;100.00;101926.22;5230052;28;20030;-67
2023/10/09 09:28:21;;;;;;;20.77;17.10;;;;;;;19.82;100.00;101934.66;5224607;28;20526;-70
2023/10/09 09:30:54;;;;;;;;;;;;;;;20.37;100.00;101934.69;5235869;28;20021;-71
2023/10/09 09:33:40;;;;;;;22.03;18.10;;;;;;;19.86;100.00;101937.06;5224304;28;20389;-71
2023/10/09 09:36:11;;;;;;;28.27;18.00;;;;;;;19.76;100.00;101945.78;5228460;28;20040;-71
2023/10/09 09:38:50;;;;;;;22.83;17.37;;;;;;;19.78;100.00;101943.84;5228273;28;20030;-71
2023/10/09 09:41:24;;;;;;;24.40;17.87;;;;;;;19.74;100.00;101942.41;5227049;28;20404;-70
2023/10/09 09:44:00;;;;;;;23.37;16.33;;;;;;;19.65;100.00;101943.19;5227354;28;20480;-69
2023/10/09 09:46:33;;;;;;;24.03;16.47;;;;;;;19.65;100.00;101948.50;5244927;28;20036;-69
2023/10/09 09:49:05;;;;;;;26.80;17.63;;;;;;;19.68;100.00;101956.22;5229686;28;20025;-68
2023/10/09 09:51:37;;;;;;;24.47;17.97;;;;;;;19.65;100.00;101954.66;5228786;28;20091;-68
2023/10/09 09:54:09;;;;;;;27.13;17.73;;;;;;;19.61;100.00;101963.84;5244809;28;20025;-68
2023/10/09 09:56:44;;;;;;;26.37;18.20;;;;;;;19.63;100.00;101951.28;5227208;28;20025;-68
2023/10/09 09:59:21;;;;;;;28.80;18.33;;;;;;;19.64;100.00;101962.72;5225830;28;20037;-66
2023/10/09 10:01:57;;;;;;;27.67;18.23;;;;;;;19.67;100.00;101962.50;5238148;28;20048;-71
2023/10/09 10:04:35;;;;;;;23.63;18.30;;;;;;;19.68;100.00;101954.41;5231706;28;20037;-69
2023/10/09 10:07:12;;;;;;;22.20;17.90;;;;;;;19.74;100.00;101963.66;5227312;28;20029;-68
2023/10/09 10:09:44;;;;;;;23.30;17.93;;;;;;;19.73;100.00;101966.44;5239842;28;20482;-67
2023/10/09 10:12:46;;;;;;;26.90;19.33;;;;;;;20.11;100.00;101965.16;5227242;28;20029;-67
2023/10/09 10:15:17;;;;;;;27.83;19.33;;;;;;;19.94;100.00;101970.03;5221135;28;20103;-69
2023/10/09 10:18:07;;;;;;;28.42;19.98;;;;;;;20.17;100.00;101962.00;5227673;28;20052;-68
2023/10/09 10:21:16;;;;;;;23.80;18.63;;;;;;;20.26;100.00;101960.38;5226602;28;20063;-67
2023/10/09 10:23:47;;;;;;;23.80;18.80;;;;;;;20.03;100.00;101963.09;5228043;28;20487;-67
2023/10/09 10:26:30;;;;;;;23.80;19.10;;;;;;;20.09;100.00;101964.41;5242091;28;20039;-68
2023/10/09 10:29:23;;;;;;;24.50;20.23;;;;;;;20.27;100.00;101959.38;5226093;28;20021;-68
2023/10/09 10:32:06;;;;;;;29.93;21.40;;;;;;;20.13;100.00;101973.00;5218701;28;20128;-69
2023/10/09 10:34:55;;;;;;;29.95;21.98;;;;;;;20.27;100.00;101958.53;5225955;28;20150;-70
2023/10/09 10:37:50;;;;;;;29.13;21.17;;;;;;;20.28;100.00;101957.59;5217835;28;20133;-69
2023/10/09 10:43:47;;;;;;;28.57;20.60;;;;;;;20.34;100.00;101948.22;5226770;28;20037;-69
2023/10/09 10:46:38;;;;;;;47.50;20.73;;;;;;;20.37;100.00;101950.66;5227234;28;20052;-69
2023/10/09 10:49:16;;;;;;;28.60;21.63;;;;;;;20.46;100.00;101951.66;5225109;28;20026;-71
2023/10/09 10:51:49;;;;;;;30.67;20.65;;;;;;;20.52;100.00;101957.31;5228937;28;20079;-69
2023/10/09 10:57:03;;;;;;;30.27;21.98;;;;;;;20.60;100.00;101955.81;5228961;28;20045;-68
2023/10/09 10:59:41;;;;;;;28.08;21.20;;;;;;;20.79;100.00;101947.06;5230096;28;20031;-68
2023/10/09 11:04:53;;;;;;;25.52;20.00;;;;;;;20.79;100.00;101953.25;5226818;28;22231;-68
2023/10/09 11:07:24;;;;;;;28.45;20.52;;;;;;;20.79;100.00;101958.56;5227902;28;20021;-68
2023/10/09 11:12:42;;;;;;;29.63;21.85;;;;;;;20.89;100.00;101968.44;5230729;28;20037;-68
2023/10/09 11:18:19;;;;;;;27.90;20.10;;;;;;;20.94;100.00;101963.59;5228671;28;20025;-68
2023/10/09 11:23:47;;;;;;;25.52;19.60;;;;;;;21.08;100.00;101965.03;5228556;28;20037;-69
2023/10/09 11:26:28;;;;;;;25.05;19.10;;;;;;;21.09;100.00;101961.41;5229318;28;20562;-68
2023/10/09 11:29:14;;;;;;;30.20;21.70;;;;;;;21.33;100.00;101959.38;5231262;28;20468;-69
2023/10/09 11:32:03;;;;;;;29.13;19.30;;;;;;;21.49;100.00;101958.81;5230035;28;20128;-70
2023/10/09 11:34:36;;;;;;;32.55;19.58;;;;;;;21.25;100.00;101950.22;5231228;28;20587;-69
2023/10/09 11:37:11;;;;;;;23.83;16.25;;;;;;;21.36;100.00;101951.97;5231675;28;20044;-69
2023/10/09 11:39:52;;;;;;;24.13;17.08;;;;;;;21.33;100.00;101949.53;5231357;28;20029;-69
2023/10/09 11:42:38;;;;;;;24.98;16.65;;;;;;;21.40;100.00;101948.03;5231700;28;20017;-68
2023/10/09 11:45:23;;;;;;;19.88;14.40;;;;;;;21.60;100.00;101945.41;5232784;28;20029;-68
2023/10/09 11:48:20;;;;;;;20.65;14.85;;;;;;;21.50;100.00;101949.88;5230869;28;20045;-68
2023/10/09 11:51:13;;;;;;;20.95;14.85;;;;;;;21.47;100.00;101945.66;5230707;28;20400;-69
2023/10/09 11:53:54;;;;;;;17.80;13.75;;;;;;;21.59;100.00;101945.53;5232607;28;20052;-68
2023/10/09 11:56:27;;;;;;;23.65;14.95;;;;;;;21.51;100.00;101957.72;5231714;28;20025;-69
2023/10/09 11:59:04;;;;;;;39.90;15.35;;;;;;;21.57;100.00;101950.16;5229788;28;20736;-69
2023/10/09 12:01:37;;;;;;;19.35;12.77;;;;;;;21.61;100.00;101940.88;5232192;28;20065;-69
2023/10/09 12:04:09;;;;;;;20.80;12.90;;;;;;;21.70;100.00;101961.38;5229865;28;20026;-69
2023/10/09 12:06:42;;;;;;;22.23;14.00;;;;;;;21.70;100.00;101950.72;5232286;28;20469;-68
2023/10/09 12:09:23;;;;;;;17.63;12.40;;;;;;;21.69;100.00;101949.06;5246829;28;20484;-68
2023/10/09 12:11:54;;;;;;;23.60;12.82;;;;;;;21.74;100.00;101951.28;5231011;28;20703;-69
2023/10/09 12:14:33;;;;;;;17.80;11.90;;;;;;;21.86;100.00;101944.03;5231777;28;20060;-69
2023/10/09 12:17:05;;;;;;;18.25;11.52;;;;;;;21.73;100.00;101954.97;5223824;28;20414;-68
2023/10/09 12:19:38;;;;;;;26.25;12.10;;;;;;;21.79;100.00;101948.19;5229728;28;20029;-69
2023/10/09 12:22:15;;;;;;;20.50;11.52;;;;;;;21.66;100.00;101932.50;5231775;28;20029;-69
2023/10/09 12:24:47;;;;;;;17.50;10.90;;;;;;;21.73;100.00;101946.97;5230287;28;20029;-69
2023/10/09 12:27:20;;;;;;;17.92;10.27;;;;;;;21.79;100.00;101945.53;5230301;28;20499;-69
2023/10/09 12:29:51;;;;;;;21.65;11.02;;;;;;;21.73;100.00;101934.44;5234330;28;20459;-70
2023/10/09 12:32:22;;;;;;;17.13;10.77;;;;;;;21.80;100.00;101936.59;5231197;28;20081;-70
2023/10/09 12:34:56;;;;;;;20.50;11.15;;;;;;;21.77;100.00;101935.00;5230309;28;20040;-68
2023/10/09 12:37:28;;;;;;;16.48;9.93;;;;;;;21.85;100.00;101934.34;5228942;28;20022;-67
2023/10/09 12:40:05;;;;;;;14.73;10.05;;;;;;;21.82;100.00;101934.66;5228905;28;20024;-67
2023/10/09 12:42:36;;;;;;;16.67;9.13;;;;;;;21.88;100.00;101939.41;5231467;28;20018;-67
2023/10/09 12:45:09;;;;;;;16.58;9.95;;;;;;;21.88;100.00;101932.25;5229899;28;20036;-69
2023/10/09 12:47:42;;;;;;;16.95;10.10;;;;;;;21.92;100.00;101927.50;5230624;28;20017;-67
2023/10/09 12:50:14;;;;;;;13.77;9.38;;;;;;;21.83;100.00;101910.50;5229898;28;20024;-67
2023/10/09 12:52:48;;;;;;;14.85;9.50;;;;;;;21.97;100.00;101919.91;5230587;28;20025;-69
2023/10/09 12:55:20;;;;;;;;;;;;;;;22.49;100.00;101915.16;5232904;28;20013;-68
2023/10/09 12:57:52;;;;;;;15.07;7.93;;;;;;;22.00;100.00;101903.63;5231173;28;19917;-67
2023/10/09 13:00:25;;;;;;;15.38;8.73;;;;;;;22.01;100.00;101893.75;5229993;28;20472;-68
2023/10/09 13:03:00;;;;;;;16.73;9.23;;;;;;;21.96;100.00;101894.19;5230318;28;20492;-68
2023/10/09 13:05:34;;;;;;;16.95;9.02;;;;;;;21.95;100.00;101883.69;5228552;28;20326;-68
2023/10/09 13:08:05;;;;;;;13.82;7.47;;;;;;;21.99;100.00;101890.41;5230541;28;20034;-68
2023/10/09 13:10:38;;;;;;;13.48;8.25;;;;;;;21.98;100.00;101894.91;5245405;28;20022;-68
2023/10/09 13:13:11;;;;;;;16.40;8.55;;;;;;;21.97;100.00;101890.56;5229276;28;20105;-68
2023/10/09 13:15:42;;;;;;;15.32;8.63;;;;;;;21.98;100.00;101896.72;5230982;28;20467;-68
2023/10/09 13:18:14;;;;;;;17.17;7.75;;;;;;;22.01;100.00;101899.09;5245061;28;20028;-68
2023/10/09 13:20:46;;;;;;;14.88;8.07;;;;;;;22.00;100.00;101894.75;5229972;28;20040;-69
2023/10/09 13:23:17;;;;;;;13.50;7.95;;;;;;;21.98;100.00;101896.72;5228905;28;20113;-69
2023/10/09 13:25:48;;;;;;;12.63;8.60;;;;;;;21.97;100.00;101887.91;5230768;28;20033;-70
2023/10/09 13:28:20;;;;;;;14.52;7.30;;;;;;;22.00;100.00;101895.59;5227203;28;20555;-71
2023/10/09 13:30:51;;;;;;;16.35;8.77;;;;;;;21.97;100.00;101898.56;5243485;28;20025;-70
2023/10/09 13:33:23;;;;;;;15.02;8.32;;;;;;;22.08;100.00;101910.06;5229382;28;20014;-69
2023/10/09 13:35:55;;;;;;;13.90;8.10;;;;;;;22.14;100.00;101912.16;5245030;28;20029;-69
2023/10/09 13:38:26;;;;;;;17.23;8.15;;;;;;;22.20;100.00;101902.75;5225410;28;20025;-70
2023/10/09 13:41:03;;;;;;;16.42;8.07;;;;;;;22.21;100.00;101907.94;5229741;28;20036;-70
2023/10/09 13:43:35;;;;;;;14.38;7.75;;;;;;;22.26;100.00;101907.50;5248197;28;20144;-70
2023/10/09 13:46:17;;;;;;;18.20;8.52;;;;;;;22.44;100.00;101910.28;5233184;28;20076;-69
2023/10/09 13:48:49;;;;;;;15.65;8.35;;;;;;;22.30;100.00;101913.38;5233645;28;20037;-69
2023/10/09 13:51:23;;;;;;;13.32;8.30;;;;;;;22.31;100.00;101904.38;5227786;28;20075;-68
2023/10/09 13:53:55;;;;;;;16.40;9.35;;;;;;;22.29;100.00;101911.72;5229689;28;20037;-69
2023/10/09 13:56:27;;;;;;;19.15;8.60;;;;;;;22.23;100.00;101892.63;5228960;28;20026;-70
2023/10/09 13:59:00;;;;;;;16.40;8.65;;;;;;;22.30;100.00;101905.38;5230202;28;20421;-71
2023/10/09 14:01:33;;;;;;;12.40;7.68;;;;;;;22.42;100.00;101914.06;5229122;28;20470;-69
2023/10/09 14:04:08;;;;;;;15.13;7.87;;;;;;;22.44;100.00;101910.28;5234722;28;20099;-69
2023/10/09 14:06:44;;;;;;;13.43;7.20;;;;;;;22.56;100.00;101907.41;5233815;28;20029;-69
2023/10/09 14:09:28;;;;;;;12.85;7.78;;;;;;;22.63;100.00;101913.88;5228667;28;22117;-68
2023/10/09 14:12:07;;;;;;;13.23;7.20;;;;;;;22.68;100.00;101905.41;5228825;28;20699;-69
2023/10/09 14:14:46;;;;;;;12.88;7.25;;;;;;;22.64;100.00;101912.88;5244031;28;20056;-68
2023/10/09 14:17:25;;;;;;;13.98;6.57;;;;;;;22.57;100.00;101907.25;5227414;28;20025;-69
2023/10/09 14:22:52;;;;;;;9.68;5.95;;;;;;;22.53;100.00;101905.03;5231135;28;20388;-69
2023/10/09 14:25:23;;;;;;;11.48;5.78;;;;;;;22.48;100.00;101898.28;5234172;28;20029;-67
2023/10/09 14:27:54;;;;;;;11.88;5.60;;;;;;;22.54;100.00;101904.03;5231241;28;20033;-69
2023/10/09 14:30:33;;;;;;;12.15;5.75;;;;;;;22.51;100.00;101904.34;5227662;28;20030;-69
2023/10/09 14:33:05;;;;;;;9.18;5.88;;;;;;;22.51;100.00;101907.00;5232973;28;20466;-68
2023/10/09 14:35:39;;;;;;;12.63;6.03;;;;;;;22.49;100.00;101907.16;5230634;28;20056;-68
2023/10/09 14:38:12;;;;;;;11.45;6.28;;;;;;;22.43;100.00;101913.09;5229490;28;20075;-69
2023/10/09 14:40:47;;;;;;;9.60;5.72;;;;;;;22.61;100.00;101913.16;5244875;28;20026;-69
2023/10/09 14:43:19;;;;;;;16.55;6.65;;;;;;;22.62;100.00;101900.69;5226925;28;20028;-68
2023/10/09 14:45:53;;;;;;;14.27;6.20;;;;;;;22.58;100.00;101905.44;5222908;28;20484;-69
2023/10/09 14:48:28;;;;;;;10.63;5.80;;;;;;;22.54;100.00;101904.03;5222973;28;20025;-69
2023/10/09 14:51:04;;;;;;;14.57;5.93;;;;;;;22.58;100.00;101905.44;5225985;28;20021;-69
2023/10/09 14:53:36;;;;;;;10.40;5.85;;;;;;;22.47;100.00;101885.94;5240471;28;20025;-68
2023/10/09 14:56:08;;;;;;;10.15;5.72;;;;;;;22.53;100.00;101902.38;5227901;28;20025;-69
2023/10/09 14:58:40;;;;;;;14.45;6.32;;;;;;;22.50;100.00;101900.00;5225505;28;20025;-69
2023/10/09 15:01:15;;;;;;;12.57;6.20;;;;;;;22.45;100.00;101895.94;5232496;28;20029;-70
2023/10/09 15:03:47;;;;;;;11.43;6.03;;;;;;;22.30;100.00;101892.88;5227643;28;21572;-69
2023/10/09 15:06:19;;;;;;;14.70;5.28;;;;;;;22.38;100.00;101894.81;5228688;28;20057;-69
2023/10/09 15:08:50;;;;;;;13.98;6.18;;;;;;;22.31;100.00;101896.38;5229176;28;20782;-69
2023/10/09 15:11:28;;;;;;;12.93;6.13;;;;;;;22.32;100.00;101895.41;5227575;28;20026;-69
2023/10/09 15:13:59;;;;;;;9.45;5.68;;;;;;;22.07;100.00;101893.22;5228383;28;20334;-69